Time;durP1;ratioP1;P1;durP2;ratioP2;P2;SDS_P1;SDS_P2;PMS_P1;PMS_P2;Temp;Humidity;BMP_temperature;BMP_pressure;BME280_temperature;BME280_humidity;BME280_pressure;Samples;Min_cycle;Max_cycle;Signal;HPM_P1;HPM_P2
2021/04/22 00:01:54;;;;;;;14.40;10.73;;;;;;;11.28;52.54;96687.91;5033133;28;20937;-69
2021/04/22 00:04:19;;;;;;;15.33;10.50;;;;;;;11.24;52.77;96686.59;5032876;28;20642;-70
2021/04/22 00:06:49;;;;;;;19.20;11.20;;;;;;;11.20;53.01;96692.22;5033832;28;20558;-70
2021/04/22 00:09:15;;;;;;;18.73;12.37;;;;;;;11.16;53.44;96696.16;5033830;28;20188;-70
2021/04/22 00:11:40;;;;;;;14.63;11.20;;;;;;;11.11;53.60;96695.81;5033606;28;20434;-69
2021/04/22 00:14:06;;;;;;;17.70;11.67;;;;;;;11.00;53.72;96699.63;5034487;28;20250;-71
2021/04/22 00:16:32;;;;;;;16.30;11.80;;;;;;;10.87;54.49;96694.09;5033045;28;20306;-70
2021/04/22 00:18:58;;;;;;;16.90;10.67;;;;;;;11.07;53.91;96697.97;5033546;28;20952;-70
2021/04/22 00:21:23;;;;;;;16.50;12.23;;;;;;;10.84;54.48;96695.22;5033415;28;20747;-71
2021/04/22 00:23:49;;;;;;;19.70;11.83;;;;;;;10.64;55.35;96709.66;5033282;28;20206;-71
2021/04/22 00:26:15;;;;;;;15.70;11.47;;;;;;;10.72;55.12;96704.41;5033694;28;20229;-69
2021/04/22 00:28:40;;;;;;;14.03;11.30;;;;;;;10.83;54.68;96701.47;5033608;28;20230;-69
2021/04/22 00:31:06;;;;;;;16.20;12.17;;;;;;;11.01;54.05;96698.66;5033427;28;20682;-69
2021/04/22 00:33:34;;;;;;;14.33;11.10;;;;;;;10.93;54.05;96705.72;5032709;28;20211;-72
2021/04/22 00:36:00;;;;;;;18.17;12.47;;;;;;;11.06;54.06;96700.78;5033248;28;20219;-71
2021/04/22 00:38:25;;;;;;;14.70;10.90;;;;;;;11.29;53.54;96710.53;5038190;28;20468;-71
2021/04/22 00:40:51;;;;;;;15.53;11.00;;;;;;;11.17;53.58;96708.28;5034346;28;20180;-70
2021/04/22 00:43:18;;;;;;;20.07;11.83;;;;;;;11.51;53.02;96703.75;5033776;28;20179;-71
2021/04/22 00:45:45;;;;;;;18.23;11.43;;;;;;;11.41;53.26;96703.09;5033434;28;20231;-70
2021/04/22 00:48:12;;;;;;;16.90;12.03;;;;;;;11.09;54.29;96700.41;5033961;28;20423;-70
2021/04/22 00:50:39;;;;;;;17.53;12.30;;;;;;;11.34;53.89;96698.56;5033324;28;20415;-69
2021/04/22 00:53:05;;;;;;;15.23;12.50;;;;;;;11.16;54.53;96703.19;5031769;28;20423;-69
2021/04/22 00:55:32;;;;;;;20.60;12.93;;;;;;;11.21;54.63;96698.25;5033430;28;20446;-69
2021/04/22 00:57:58;;;;;;;19.43;14.53;;;;;;;11.09;55.30;96703.03;5033546;28;20422;-70
2021/04/22 01:00:29;;;;;;;17.17;13.37;;;;;;;11.22;55.33;96695.47;5033222;28;20502;-70
2021/04/22 01:02:54;;;;;;;17.50;14.77;;;;;;;11.72;54.66;96694.44;5032715;28;20419;-71
2021/04/22 01:05:26;;;;;;;19.30;15.30;;;;;;;11.87;54.96;96682.22;5033118;28;20981;-70
2021/04/22 01:07:52;;;;;;;22.70;16.97;;;;;;;12.22;54.78;96658.25;5033342;28;20186;-70
2021/04/22 01:10:19;;;;;;;24.77;17.57;;;;;;;12.51;54.82;96654.88;5031299;28;20424;-70
2021/04/22 01:12:45;;;;;;;21.77;16.10;;;;;;;12.62;54.64;96658.88;5036097;28;20603;-70
2021/04/22 01:15:16;;;;;;;21.80;16.40;;;;;;;12.91;53.77;96657.28;5033567;28;20501;-70
2021/04/22 01:17:41;;;;;;;25.93;16.30;;;;;;;12.94;53.94;96662.19;5033585;28;20449;-70
2021/04/22 01:20:13;;;;;;;23.10;17.07;;;;;;;12.92;54.20;96660.75;5033380;28;20756;-70
2021/04/22 01:22:39;;;;;;;23.33;17.80;;;;;;;12.93;53.82;96663.19;5033649;28;20234;-69
2021/04/22 01:25:07;;;;;;;24.80;18.37;;;;;;;13.02;53.86;96674.44;5032783;28;20538;-70
2021/04/22 01:27:33;;;;;;;24.43;17.40;;;;;;;13.00;53.87;96666.72;5032492;28;20274;-71
2021/04/22 01:29:59;;;;;;;22.33;17.70;;;;;;;12.72;55.17;96675.22;5031702;28;20869;-70
2021/04/22 01:32:25;;;;;;;27.50;19.30;;;;;;;12.54;55.58;96677.34;5033239;28;20418;-69
2021/04/22 01:34:50;;;;;;;23.50;18.43;;;;;;;12.39;56.26;96690.47;5031347;28;20218;-70
2021/04/22 01:37:16;;;;;;;28.63;18.57;;;;;;;12.34;55.96;96685.72;5032818;28;20585;-70
2021/04/22 01:39:42;;;;;;;24.60;18.00;;;;;;;12.18;56.49;96691.09;5032724;28;20215;-70
2021/04/22 01:42:07;;;;;;;22.30;17.30;;;;;;;12.40;56.06;96685.00;5031230;28;20187;-70
2021/04/22 01:44:33;;;;;;;23.30;17.83;;;;;;;12.42;56.13;96679.56;5032495;28;20245;-69
2021/04/22 01:46:59;;;;;;;22.90;17.70;;;;;;;12.65;55.69;96687.44;5034910;28;20265;-72
2021/04/22 01:49:24;;;;;;;25.03;19.20;;;;;;;12.32;56.98;96682.47;5033293;28;20186;-70
2021/04/22 01:51:50;;;;;;;23.63;18.30;;;;;;;12.40;56.77;96686.84;5032500;28;20255;-70
2021/04/22 01:54:15;;;;;;;26.30;19.23;;;;;;;12.48;56.29;96684.13;5032668;28;20186;-70
2021/04/22 01:56:41;;;;;;;25.97;20.13;;;;;;;12.29;56.74;96688.06;5032671;28;20211;-69
2021/04/22 01:59:07;;;;;;;25.37;19.23;;;;;;;12.33;56.97;96691.16;5032609;28;20282;-69
2021/04/22 02:01:32;;;;;;;29.87;19.43;;;;;;;12.33;56.65;96699.03;5031844;28;20221;-70
2021/04/22 02:03:58;;;;;;;23.57;18.77;;;;;;;12.12;56.91;96701.31;5030820;28;20330;-69
2021/04/22 02:06:23;;;;;;;26.53;19.07;;;;;;;11.97;56.90;96705.66;5031835;28;20713;-71
2021/04/22 02:08:49;;;;;;;28.63;19.93;;;;;;;11.75;56.89;96710.66;5031338;28;20264;-70
2021/04/22 02:11:15;;;;;;;33.70;20.10;;;;;;;11.50;58.06;96713.41;5032323;28;20191;-70
2021/04/22 02:13:40;;;;;;;25.33;19.40;;;;;;;11.37;58.88;96713.13;5032964;28;20674;-69
2021/04/22 02:16:06;;;;;;;26.30;19.90;;;;;;;11.20;60.13;96718.44;5032415;28;20658;-71
2021/04/22 02:18:31;;;;;;;28.23;21.60;;;;;;;11.39;59.47;96711.16;5032574;28;20203;-70
2021/04/22 02:20:57;;;;;;;28.90;21.30;;;;;;;11.46;59.70;96727.03;5032335;28;20186;-71
2021/04/22 02:23:24;;;;;;;29.80;20.23;;;;;;;11.53;59.32;96715.69;5032687;28;20227;-70
2021/04/22 02:25:49;;;;;;;27.83;22.20;;;;;;;11.43;59.95;96716.88;5032903;28;20226;-70
2021/04/22 02:28:15;;;;;;;30.27;21.50;;;;;;;11.65;59.20;96715.31;5033460;28;20414;-71
2021/04/22 02:30:43;;;;;;;30.20;22.13;;;;;;;11.43;60.22;96714.25;5032975;28;20218;-71
2021/04/22 02:33:11;;;;;;;30.83;23.67;;;;;;;11.63;59.49;96722.53;5033418;28;20421;-72
2021/04/22 02:35:39;;;;;;;32.93;24.10;;;;;;;11.52;60.09;96726.38;5032562;28;20439;-70
2021/04/22 02:38:07;;;;;;;33.30;24.70;;;;;;;11.70;59.80;96730.56;5032629;28;20940;-70
2021/04/22 02:40:34;;;;;;;34.40;24.10;;;;;;;11.71;60.04;96737.44;5031917;28;20422;-70
2021/04/22 02:43:01;;;;;;;34.63;26.27;;;;;;;11.39;60.78;96734.75;5029534;28;20419;-71
2021/04/22 02:45:32;;;;;;;36.70;25.80;;;;;;;11.61;60.22;96732.38;5031527;28;21009;-70
2021/04/22 02:47:59;;;;;;;38.57;28.20;;;;;;;11.28;61.78;96737.75;5038810;28;20437;-70
2021/04/22 02:50:27;;;;;;;45.17;26.83;;;;;;;11.18;62.09;96730.91;5031885;28;20488;-70
2021/04/22 02:52:52;;;;;;;40.60;27.43;;;;;;;11.31;61.77;96735.59;5030531;28;20422;-70
2021/04/22 02:55:19;;;;;;;37.17;28.77;;;;;;;11.19;62.15;96743.03;5031964;28;20445;-70
2021/04/22 02:57:44;;;;;;;42.77;26.60;;;;;;;10.99;62.53;96746.97;5031946;28;20256;-70
2021/04/22 03:00:16;;;;;;;39.30;28.17;;;;;;;10.97;62.94;96747.16;5030815;28;20423;-70
2021/04/22 03:02:42;;;;;;;39.63;28.77;;;;;;;11.09;62.85;96747.63;5030395;28;20203;-69
2021/04/22 03:05:08;;;;;;;41.07;29.03;;;;;;;11.14;62.51;96740.06;5031066;28;20455;-70
2021/04/22 03:07:34;;;;;;;40.10;29.13;;;;;;;11.08;62.72;96746.00;5031166;28;20533;-69
2021/04/22 03:10:00;;;;;;;43.83;28.50;;;;;;;11.21;62.71;96745.47;5031216;28;20537;-70
2021/04/22 03:12:26;;;;;;;43.50;31.03;;;;;;;11.17;63.51;96744.16;5031280;28;20184;-70
2021/04/22 03:14:52;;;;;;;49.57;31.60;;;;;;;11.16;63.71;96751.22;5031129;28;20192;-68
2021/04/22 03:17:18;;;;;;;49.87;32.73;;;;;;;11.36;63.34;96742.97;5031186;28;20423;-69
2021/04/22 03:19:43;;;;;;;42.00;30.80;;;;;;;11.60;62.28;96751.75;5030119;28;20205;-70
2021/04/22 03:22:09;;;;;;;50.17;31.90;;;;;;;11.65;62.17;96736.31;5030944;28;20182;-70
2021/04/22 03:24:35;;;;;;;42.37;31.00;;;;;;;11.81;61.46;96741.50;5030059;28;20225;-68
2021/04/22 03:27:01;;;;;;;38.20;28.87;;;;;;;12.01;60.84;96740.28;5033995;28;20207;-70
2021/04/22 03:29:27;;;;;;;38.53;27.50;;;;;;;11.48;61.50;96752.13;5035015;28;20445;-70
2021/04/22 03:31:52;;;;;;;37.70;27.50;;;;;;;11.63;61.17;96754.03;5034793;28;20180;-69
2021/04/22 03:34:18;;;;;;;34.90;27.37;;;;;;;11.25;61.89;96764.31;5017547;28;20233;-69
2021/04/22 03:36:44;;;;;;;40.60;25.23;;;;;;;10.89;62.81;96766.34;5034904;28;20203;-69
2021/04/22 03:39:09;;;;;;;39.60;28.20;;;;;;;10.94;64.08;96765.03;5034853;28;20176;-69
2021/04/22 03:41:35;;;;;;;38.63;26.83;;;;;;;10.95;64.71;96764.84;5034156;28;20179;-68
2021/04/22 03:44:00;;;;;;;37.50;27.77;;;;;;;11.26;64.01;96776.44;5033873;28;20183;-70
2021/04/22 03:46:26;;;;;;;41.13;28.00;;;;;;;10.99;65.39;96778.44;5034339;28;20211;-68
2021/04/22 03:48:52;;;;;;;43.03;28.67;;;;;;;10.56;67.40;96789.94;5034734;28;20188;-69
2021/04/22 03:51:17;;;;;;;46.23;30.30;;;;;;;10.58;67.64;96787.97;5034261;28;20186;-70
2021/04/22 03:53:43;;;;;;;43.57;30.10;;;;;;;10.59;67.50;96789.56;5030094;28;20218;-68
2021/04/22 03:56:09;;;;;;;49.40;32.20;;;;;;;10.82;67.21;96786.34;5031896;28;20246;-70
2021/04/22 03:58:34;;;;;;;47.60;32.80;;;;;;;10.65;67.28;96789.94;5033689;28;20176;-70
2021/04/22 04:01:01;;;;;;;49.87;34.20;;;;;;;10.29;69.13;96791.81;5033743;28;20187;-69
2021/04/22 04:03:26;;;;;;;48.47;33.80;;;;;;;10.07;70.17;96798.47;5033416;28;20180;-70
2021/04/22 04:05:52;;;;;;;44.20;30.80;;;;;;;10.21;68.39;96796.22;5032217;28;20468;-70
2021/04/22 04:08:18;;;;;;;49.43;31.33;;;;;;;10.17;68.01;96795.72;5033703;28;20229;-68
2021/04/22 04:10:43;;;;;;;40.17;29.23;;;;;;;9.87;68.76;96805.75;5033953;28;20215;-68
2021/04/22 04:13:09;;;;;;;39.53;28.80;;;;;;;9.87;67.82;96804.94;5034400;28;20573;-71
2021/04/22 04:15:35;;;;;;;38.43;29.13;;;;;;;9.95;67.79;96807.59;5032919;28;20192;-70
2021/04/22 04:18:02;;;;;;;40.57;28.20;;;;;;;9.62;68.07;96804.84;5033830;28;20553;-71
2021/04/22 04:20:27;;;;;;;39.27;28.17;;;;;;;9.41;68.36;96808.63;5034143;28;20180;-70
2021/04/22 04:22:53;;;;;;;43.33;28.57;;;;;;;9.55;68.34;96809.88;5032602;28;20457;-70
2021/04/22 04:25:18;;;;;;;42.50;29.90;;;;;;;9.62;67.29;96810.88;5035734;28;20215;-69
2021/04/22 04:27:44;;;;;;;37.27;27.50;;;;;;;9.80;66.84;96804.75;5034218;28;20194;-70
2021/04/22 04:30:15;;;;;;;38.17;27.93;;;;;;;9.81;66.73;96811.63;5033798;28;20180;-70
2021/04/22 04:32:41;;;;;;;43.50;29.30;;;;;;;9.89;66.31;96809.03;5033955;28;20686;-71
2021/04/22 04:35:08;;;;;;;49.77;27.83;;;;;;;9.67;67.02;96821.72;5031924;28;20462;-71
2021/04/22 04:37:34;;;;;;;40.40;28.33;;;;;;;10.02;66.38;96823.47;5032293;28;20188;-71
2021/04/22 04:40:00;;;;;;;42.57;27.93;;;;;;;9.74;66.02;96826.31;5025162;28;20456;-70
2021/04/22 04:42:25;;;;;;;38.03;27.40;;;;;;;10.07;65.60;96842.16;5032479;28;20430;-69
2021/04/22 04:44:51;;;;;;;37.43;26.40;;;;;;;10.26;64.91;96835.84;5033749;28;20207;-70
2021/04/22 04:47:17;;;;;;;35.33;25.50;;;;;;;10.41;63.97;96839.50;5034041;28;20200;-70
2021/04/22 04:49:42;;;;;;;43.23;27.13;;;;;;;10.48;63.58;96836.25;5033617;28;20183;-70
2021/04/22 04:52:08;;;;;;;39.97;26.00;;;;;;;10.67;62.71;96854.28;5032962;28;20225;-69
2021/04/22 04:54:34;;;;;;;35.93;26.30;;;;;;;10.47;62.92;96855.56;5033619;28;20369;-69
2021/04/22 04:56:59;;;;;;;37.40;26.27;;;;;;;10.17;63.86;96863.81;5038409;28;20321;-69
2021/04/22 04:59:25;;;;;;;40.67;26.20;;;;;;;10.06;64.26;96869.31;5032820;28;20643;-71
2021/04/22 05:01:50;;;;;;;34.30;25.00;;;;;;;10.33;63.64;96864.84;5032095;28;20211;-71
2021/04/22 05:04:16;;;;;;;34.23;24.47;;;;;;;10.07;64.25;96871.78;5029169;28;20173;-69
2021/04/22 05:06:42;;;;;;;39.70;26.77;;;;;;;10.05;64.20;96870.31;5030605;28;20246;-70
2021/04/22 05:09:07;;;;;;;35.43;24.97;;;;;;;9.80;65.16;96871.00;5033465;28;20524;-71
2021/04/22 05:11:33;;;;;;;34.00;25.53;;;;;;;10.28;63.72;96879.22;5031787;28;20248;-69
2021/04/22 05:13:59;;;;;;;38.03;25.53;;;;;;;10.44;63.42;96881.09;5031757;28;20195;-69
2021/04/22 05:16:24;;;;;;;58.93;31.33;;;;;;;9.89;65.21;96881.53;5033232;28;20200;-69
2021/04/22 05:18:50;;;;;;;122.53;42.00;;;;;;;10.04;64.95;96884.38;5030565;28;20329;-69
2021/04/22 05:21:15;;;;;;;50.73;27.77;;;;;;;9.86;65.25;96881.81;5031130;28;20206;-69
2021/04/22 05:23:41;;;;;;;52.77;28.17;;;;;;;10.13;64.78;96889.50;5032463;28;20201;-70
2021/04/22 05:26:07;;;;;;;110.83;35.33;;;;;;;10.32;64.08;96884.97;5031630;28;20207;-71
2021/04/22 05:28:32;;;;;;;42.97;27.53;;;;;;;10.30;63.98;96895.59;5032698;28;20681;-69
2021/04/22 05:30:58;;;;;;;65.87;32.67;;;;;;;10.35;64.39;96896.91;5032540;28;20267;-70
2021/04/22 05:33:24;;;;;;;50.77;28.93;;;;;;;10.49;63.54;96904.19;5032620;28;20180;-71
2021/04/22 05:35:49;;;;;;;65.60;31.20;;;;;;;9.83;65.13;96911.72;5030571;28;20199;-70
2021/04/22 05:38:15;;;;;;;71.37;30.33;;;;;;;10.07;65.29;96905.81;5032589;28;21268;-70
2021/04/22 05:40:41;;;;;;;44.83;29.10;;;;;;;10.19;64.74;96902.91;5031448;28;20207;-70
2021/04/22 05:43:07;;;;;;;36.63;26.23;;;;;;;9.77;66.25;96912.34;5032834;28;20259;-70
2021/04/22 05:45:35;;;;;;;39.80;26.70;;;;;;;10.06;64.90;96908.59;5032162;28;20239;-69
2021/04/22 05:48:00;;;;;;;32.03;24.93;;;;;;;9.94;65.37;96911.50;5033856;28;20423;-69
2021/04/22 05:50:26;;;;;;;34.33;24.67;;;;;;;10.47;63.63;96916.63;5036016;28;20504;-70
2021/04/22 05:52:52;;;;;;;35.00;25.03;;;;;;;10.22;64.60;96911.28;5032762;28;20188;-71
2021/04/22 05:55:18;;;;;;;32.30;25.20;;;;;;;10.13;65.19;96926.16;5030769;28;20195;-69
2021/04/22 05:57:44;;;;;;;31.00;23.93;;;;;;;10.32;63.89;96921.63;5032837;28;20192;-69
2021/04/22 06:00:13;;;;;;;33.30;24.50;;;;;;;9.99;65.26;96924.91;5031260;28;20414;-68
2021/04/22 06:02:39;;;;;;;35.07;25.53;;;;;;;9.92;65.33;96929.16;5032377;28;20191;-72
2021/04/22 06:05:05;;;;;;;40.23;26.27;;;;;;;9.88;65.54;96930.41;5036363;28;20961;-71
2021/04/22 06:07:31;;;;;;;33.03;25.67;;;;;;;9.74;65.69;96925.75;5037963;28;20599;-69
2021/04/22 06:09:57;;;;;;;41.43;27.10;;;;;;;9.68;65.38;96935.88;5032070;28;20472;-69
2021/04/22 06:12:22;;;;;;;41.80;26.50;;;;;;;10.04;65.50;96941.97;5032211;28;20682;-69
2021/04/22 06:14:48;;;;;;;35.90;25.00;;;;;;;10.47;63.89;96942.84;5032489;28;20601;-69
2021/04/22 06:17:15;;;;;;;38.40;26.40;;;;;;;9.95;65.25;96939.31;5032282;28;20487;-69
2021/04/22 06:19:41;;;;;;;37.57;26.87;;;;;;;10.39;64.61;96940.19;5032251;28;20180;-70
2021/04/22 06:22:07;;;;;;;40.00;25.83;;;;;;;10.35;63.66;96949.31;5031610;28;20877;-70
2021/04/22 06:24:32;;;;;;;41.90;27.63;;;;;;;10.12;64.29;96950.69;5031970;28;21148;-70
2021/04/22 06:26:58;;;;;;;38.67;27.90;;;;;;;10.82;62.84;96961.97;5029896;28;20218;-69
2021/04/22 06:29:24;;;;;;;42.57;28.17;;;;;;;10.48;63.76;96960.19;5031616;28;20188;-70
2021/04/22 06:31:50;;;;;;;40.50;28.07;;;;;;;10.26;64.65;96967.63;5029276;28;20544;-70
2021/04/22 06:34:15;;;;;;;39.30;25.30;;;;;;;10.20;64.75;96968.25;5034787;28;20175;-70
2021/04/22 06:36:44;;;;;;;38.40;26.20;;;;;;;10.04;64.55;96976.00;5037427;28;20477;-71
2021/04/22 06:39:10;;;;;;;33.77;24.50;;;;;;;10.19;64.09;96986.72;5037665;28;20176;-69
2021/04/22 06:41:37;;;;;;;41.20;25.93;;;;;;;10.29;63.64;96977.78;5037929;28;20837;-70
2021/04/22 06:44:03;;;;;;;36.03;25.50;;;;;;;9.97;64.73;96983.66;5038072;28;20445;-70
2021/04/22 06:46:29;;;;;;;39.37;26.33;;;;;;;10.10;63.99;96978.81;5036736;28;20469;-69
2021/04/22 06:48:55;;;;;;;43.73;27.17;;;;;;;10.32;64.06;96992.34;5031288;28;20901;-69
2021/04/22 06:51:20;;;;;;;35.27;25.10;;;;;;;10.26;63.74;96999.03;5032098;28;20552;-69
2021/04/22 06:53:46;;;;;;;45.53;26.20;;;;;;;10.99;61.74;96996.09;5032029;28;20187;-70
2021/04/22 06:56:12;;;;;;;40.27;25.43;;;;;;;11.13;61.30;97011.19;5031637;28;20221;-68
2021/04/22 06:58:37;;;;;;;39.63;27.27;;;;;;;10.35;63.35;97001.69;5031988;28;20183;-71
2021/04/22 07:01:03;;;;;;;33.70;24.40;;;;;;;10.47;63.06;97005.72;5030123;28;20540;-70
2021/04/22 07:03:29;;;;;;;34.43;25.77;;;;;;;10.65;63.00;97010.06;5031126;28;20184;-71
2021/04/22 07:05:54;;;;;;;36.80;25.93;;;;;;;10.89;62.18;97009.34;5033982;28;20237;-69
2021/04/22 07:08:20;;;;;;;36.80;24.97;;;;;;;10.46;62.95;97004.06;5031295;28;20237;-69
2021/04/22 07:10:46;;;;;;;42.23;26.50;;;;;;;10.65;62.75;97007.44;5031307;28;20278;-68
2021/04/22 07:13:11;;;;;;;35.53;25.13;;;;;;;10.43;62.49;97007.84;5031282;28;20187;-70
2021/04/22 07:15:37;;;;;;;48.80;27.33;;;;;;;10.66;62.58;97023.00;5031063;28;20199;-70
2021/04/22 07:18:05;;;;;;;33.57;23.70;;;;;;;10.81;61.96;97018.00;5031087;28;20184;-70
2021/04/22 07:20:31;;;;;;;46.10;26.00;;;;;;;10.63;62.65;97025.97;5031247;28;20218;-70
2021/04/22 07:22:58;;;;;;;39.00;27.13;;;;;;;10.41;62.79;97027.31;5030440;28;20474;-69
2021/04/22 07:25:27;;;;;;;50.27;28.90;;;;;;;10.04;64.36;97036.22;5030625;28;20298;-70
2021/04/22 07:27:53;;;;;;;45.63;27.33;;;;;;;10.55;62.44;97028.53;5031229;28;20461;-70
2021/04/22 07:30:20;;;;;;;44.27;25.53;;;;;;;10.54;62.12;97026.88;5027130;28;20589;-69
2021/04/22 07:32:45;;;;;;;41.97;24.00;;;;;;;10.25;62.12;97026.22;5026779;28;20192;-70
2021/04/22 07:35:12;;;;;;;44.17;22.10;;;;;;;10.85;59.68;97037.66;5029354;28;20488;-69
2021/04/22 07:37:38;;;;;;;30.23;19.70;;;;;;;10.90;59.54;97038.03;5036744;28;20286;-69
2021/04/22 07:40:07;;;;;;;33.93;21.60;;;;;;;10.26;61.12;97034.91;5032759;28;20452;-68
2021/04/22 07:42:33;;;;;;;39.13;21.67;;;;;;;10.51;60.18;97035.06;5031920;28;20973;-70
2021/04/22 07:44:58;;;;;;;34.83;20.27;;;;;;;10.59;59.79;97033.28;5031540;28;20438;-69
2021/04/22 07:47:24;;;;;;;32.70;21.83;;;;;;;11.20;58.10;97043.69;5031769;28;20191;-69
2021/04/22 07:49:50;;;;;;;34.63;20.33;;;;;;;10.98;58.67;97039.00;5031924;28;20267;-70
2021/04/22 07:52:15;;;;;;;27.63;18.77;;;;;;;10.66;59.07;97045.78;5031878;28;20623;-70
2021/04/22 07:54:42;;;;;;;30.30;19.47;;;;;;;11.12;58.22;97050.72;5031150;28;20176;-68
2021/04/22 07:57:08;;;;;;;29.17;19.47;;;;;;;10.89;58.72;97041.63;5031510;28;20222;-68
2021/04/22 07:59:33;;;;;;;25.53;19.10;;;;;;;10.98;58.62;97049.50;5031550;28;20435;-69
2021/04/22 08:01:59;;;;;;;28.53;20.60;;;;;;;10.79;58.29;97050.56;5029449;28;20561;-69
2021/04/22 08:04:24;;;;;;;29.63;19.43;;;;;;;11.13;57.87;97057.59;5031237;28;20350;-69
2021/04/22 08:06:50;;;;;;;32.07;20.37;;;;;;;10.60;58.64;97060.34;5031725;28;20208;-70
2021/04/22 08:09:16;;;;;;;28.13;19.67;;;;;;;10.88;58.53;97060.94;5031647;28;20731;-70
2021/04/22 08:11:41;;;;;;;25.80;18.03;;;;;;;10.82;58.64;97050.28;5032263;28;20172;-68
2021/04/22 08:14:08;;;;;;;27.10;18.73;;;;;;;10.91;57.36;97057.19;5035694;28;20714;-68
2021/04/22 08:16:34;;;;;;;26.37;18.53;;;;;;;10.28;58.95;97065.19;5034388;28;20481;-72
2021/04/22 08:19:00;;;;;;;30.23;18.23;;;;;;;10.86;58.28;97055.03;5027944;28;20634;-69
2021/04/22 08:21:25;;;;;;;29.50;16.57;;;;;;;10.49;58.18;97055.38;5034794;28;20209;-70
2021/04/22 08:23:51;;;;;;;26.97;18.50;;;;;;;10.80;57.36;97062.72;5035001;28;20430;-70
2021/04/22 08:26:19;;;;;;;26.40;18.20;;;;;;;10.61;57.46;97056.75;5034726;28;20290;-69
2021/04/22 08:28:46;;;;;;;29.53;18.20;;;;;;;10.64;57.47;97059.06;5035323;28;20176;-69
2021/04/22 08:31:24;;;;;;;23.00;16.73;;;;;;;10.51;57.33;97064.69;5034332;28;20433;-69
2021/04/22 08:33:52;;;;;;;30.03;18.03;;;;;;;10.93;56.33;97072.78;5035316;28;20422;-69
2021/04/22 08:36:20;;;;;;;35.93;17.17;;;;;;;10.72;56.88;97073.97;5034604;28;20489;-68
2021/04/22 08:38:46;;;;;;;27.97;16.50;;;;;;;11.10;56.06;97071.84;5034959;28;20411;-69
2021/04/22 08:41:12;;;;;;;25.70;15.70;;;;;;;10.94;55.11;97077.84;5034469;28;20574;-69
2021/04/22 08:43:38;;;;;;;23.20;15.23;;;;;;;11.20;54.23;97075.19;5033494;28;20430;-69
2021/04/22 08:46:05;;;;;;;23.10;15.33;;;;;;;11.32;54.05;97080.13;5034955;28;20357;-68
2021/04/22 08:48:32;;;;;;;23.50;14.80;;;;;;;12.21;51.37;97079.56;5034952;28;20470;-69
2021/04/22 08:50:57;;;;;;;26.00;13.87;;;;;;;12.43;50.55;97081.50;5034528;28;20513;-68
2021/04/22 08:53:29;;;;;;;22.93;12.87;;;;;;;12.87;48.98;97075.00;5032910;28;20431;-68
2021/04/22 08:55:55;;;;;;;21.53;13.97;;;;;;;13.21;48.42;97083.56;5033294;28;20207;-68
2021/04/22 08:58:21;;;;;;;21.53;13.50;;;;;;;12.94;48.12;97085.66;5037180;28;20423;-68
2021/04/22 09:00:59;;;;;;;24.10;13.23;;;;;;;12.51;48.95;97085.09;5034874;28;20437;-68
2021/04/22 09:03:24;;;;;;;22.00;13.83;;;;;;;12.19;49.44;97092.06;5034468;28;20175;-68
2021/04/22 09:05:50;;;;;;;21.30;12.83;;;;;;;12.78;47.68;97089.16;5041324;28;20878;-69
2021/04/22 09:08:18;;;;;;;21.10;12.90;;;;;;;13.36;46.49;97092.34;5043086;28;20668;-69
2021/04/22 09:10:44;;;;;;;23.47;12.03;;;;;;;13.09;46.75;97098.09;5036594;28;20433;-69
2021/04/22 09:13:15;;;;;;;22.47;11.40;;;;;;;12.70;47.50;97089.16;5037214;28;20933;-68
2021/04/22 09:15:46;;;;;;;21.60;11.17;;;;;;;12.88;47.51;97094.19;5042794;28;20210;-69
2021/04/22 09:18:17;;;;;;;17.40;10.50;;;;;;;13.72;45.83;97098.13;5046990;28;20434;-68
2021/04/22 09:20:49;;;;;;;19.50;11.53;;;;;;;14.06;44.80;97099.50;5040646;28;20429;-69
2021/04/22 09:23:18;;;;;;;21.37;12.60;;;;;;;13.30;45.39;97108.00;5034280;28;20430;-68
2021/04/22 09:25:46;;;;;;;20.30;12.67;;;;;;;14.03;44.56;97110.41;5034264;28;20885;-67
2021/04/22 09:28:11;;;;;;;17.97;12.40;;;;;;;14.08;43.81;97105.44;5034033;28;20419;-69
2021/04/22 09:30:45;;;;;;;21.13;11.93;;;;;;;13.14;45.06;97103.66;5033650;28;20785;-68
2021/04/22 09:33:30;;;;;;;20.13;12.00;;;;;;;13.02;46.41;97105.84;5033451;28;20558;-68
2021/04/22 09:36:06;;;;;;;21.17;12.40;;;;;;;13.11;45.06;97107.44;5035987;28;20439;-69
2021/04/22 09:38:31;;;;;;;21.37;12.17;;;;;;;12.76;46.08;97096.41;5033714;28;20454;-68
2021/04/22 09:41:11;;;;;;;27.53;13.00;;;;;;;12.75;45.89;97108.69;5033436;28;20470;-69
2021/04/22 09:43:37;;;;;;;16.53;11.07;;;;;;;13.74;43.42;97109.28;5029977;28;20798;-69
2021/04/22 09:46:03;;;;;;;25.47;12.17;;;;;;;13.71;43.09;97107.81;5034392;28;20470;-69
2021/04/22 09:48:29;;;;;;;16.80;11.40;;;;;;;13.34;44.05;97097.00;5018667;28;20188;-70
2021/04/22 09:51:00;;;;;;;15.27;11.20;;;;;;;13.40;43.19;97102.56;5033220;28;20188;-69
2021/04/22 09:53:27;;;;;;;17.17;11.67;;;;;;;13.35;43.23;97105.69;5033391;28;20863;-67
2021/04/22 09:55:57;;;;;;;13.83;9.50;;;;;;;13.89;41.69;97097.00;5030283;28;20469;-72
2021/04/22 09:58:29;;;;;;;17.27;9.60;;;;;;;13.61;42.10;97109.88;4981193;28;20830;-70
2021/04/22 10:00:55;;;;;;;17.83;9.80;;;;;;;14.79;40.20;97113.03;5033077;28;20465;-68
2021/04/22 10:03:21;;;;;;;17.03;9.57;;;;;;;14.96;39.52;97107.59;5033446;28;20814;-67
2021/04/22 10:06:01;;;;;;;14.00;8.90;;;;;;;15.04;38.42;97100.41;5033207;28;20509;-67
2021/04/22 10:08:27;;;;;;;16.80;9.90;;;;;;;15.11;38.21;97100.47;5032850;28;20194;-68
2021/04/22 10:10:56;;;;;;;13.27;8.30;;;;;;;15.29;38.01;97096.63;5032356;28;20430;-68
2021/04/22 10:13:21;;;;;;;15.43;8.87;;;;;;;14.43;37.80;97106.59;5032833;28;20422;-67
2021/04/22 10:15:58;;;;;;;13.67;8.27;;;;;;;14.68;37.82;97106.38;5032954;28;20450;-69
2021/04/22 10:18:38;;;;;;;16.00;8.20;;;;;;;15.57;37.01;97103.84;5033066;28;20179;-68
2021/04/22 10:21:04;;;;;;;19.10;8.60;;;;;;;14.86;37.34;97098.13;5025402;28;20468;-68
2021/04/22 10:23:30;;;;;;;14.10;8.40;;;;;;;14.50;38.37;97098.78;5032671;28;20949;-69
2021/04/22 10:25:56;;;;;;;16.40;8.43;;;;;;;14.67;38.05;97099.50;5033287;28;20477;-69
2021/04/22 10:28:22;;;;;;;11.67;8.80;;;;;;;14.83;37.87;97093.22;5031967;28;20951;-68
2021/04/22 10:30:49;;;;;;;13.63;8.00;;;;;;;15.11;37.55;97095.19;5014510;28;20450;-68
2021/04/22 10:33:15;;;;;;;20.47;8.10;;;;;;;15.48;36.20;97090.75;5032155;28;20187;-70
2021/04/22 10:35:43;;;;;;;22.30;9.50;;;;;;;15.01;37.23;97094.66;5028079;28;20898;-69
2021/04/22 10:38:09;;;;;;;17.13;9.57;;;;;;;15.48;36.92;97089.94;5032711;28;20422;-69
2021/04/22 10:40:41;;;;;;;15.70;8.60;;;;;;;15.24;36.66;97088.44;5031792;28;20433;-69
2021/04/22 10:43:08;;;;;;;13.80;7.33;;;;;;;15.25;35.60;97095.38;5032818;28;20430;-68
2021/04/22 10:45:37;;;;;;;15.30;7.43;;;;;;;14.88;36.16;97093.47;5032955;28;20936;-67
2021/04/22 10:48:03;;;;;;;11.17;7.33;;;;;;;15.41;35.22;97097.78;5033254;28;20650;-69
2021/04/22 10:50:44;;;;;;;46.23;16.13;;;;;;;16.09;34.03;97084.25;5033404;28;20506;-68
2021/04/22 10:53:13;;;;;;;36.13;13.27;;;;;;;14.66;34.90;97089.91;5031654;28;20414;-68
2021/04/22 10:55:40;;;;;;;20.93;9.93;;;;;;;14.54;34.91;97094.78;5032677;28;20442;-68
2021/04/22 10:58:12;;;;;;;16.00;7.80;;;;;;;14.61;35.21;97099.34;5033565;28;20423;-69
2021/04/22 11:00:53;;;;;;;44.53;15.80;;;;;;;14.00;36.00;97090.50;5034457;28;20849;-69
2021/04/22 11:03:22;;;;;;;25.27;11.23;;;;;;;14.97;34.50;97080.19;5033736;28;20912;-69
2021/04/22 11:06:00;;;;;;;18.87;7.67;;;;;;;16.06;32.96;97082.00;5035523;28;20470;-68
2021/04/22 11:08:51;;;;;;;79.83;23.97;;;;;;;15.74;34.58;97078.84;5033272;28;20427;-69
2021/04/22 11:11:19;;;;;;;23.23;10.30;;;;;;;15.48;34.78;97082.84;5033571;28;20844;-69
2021/04/22 11:13:46;;;;;;;22.03;9.57;;;;;;;15.15;34.44;97077.19;5032130;28;20426;-70
2021/04/22 11:16:12;;;;;;;52.50;15.87;;;;;;;14.73;35.14;97077.66;5033420;28;20454;-69
2021/04/22 11:18:39;;;;;;;11.57;7.00;;;;;;;14.71;35.96;97089.38;5032805;28;20426;-70